sensor_id;sensor_type;location;lat;lon;timestamp;pressure;altitude;pressure_sealevel;temperature;humidity
8320;BME280;4197;42.130;24.746;2023-09-08T00:02:03;99922.13;;;21.09;79.93
8320;BME280;4197;42.130;24.746;2023-09-08T00:04:33;99920.19;;;21.06;81.08
8320;BME280;4197;42.130;24.746;2023-09-08T00:07:02;99924.91;;;21.06;82.15
8320;BME280;4197;42.130;24.746;2023-09-08T00:09:31;99921.81;;;21.04;82.53
8320;BME280;4197;42.130;24.746;2023-09-08T00:11:59;99921.88;;;20.97;82.65
8320;BME280;4197;42.130;24.746;2023-09-08T00:14:28;99920.31;;;20.96;83.30
8320;BME280;4197;42.130;24.746;2023-09-08T00:16:56;99921.19;;;20.89;85.32
8320;BME280;4197;42.130;24.746;2023-09-08T00:19:24;99922.78;;;20.86;86.87
8320;BME280;4197;42.130;24.746;2023-09-08T00:21:55;99923.66;;;20.80;89.29
8320;BME280;4197;42.130;24.746;2023-09-08T00:24:24;99922.06;;;20.82;91.49
8320;BME280;4197;42.130;24.746;2023-09-08T00:26:52;99918.09;;;20.83;92.94
8320;BME280;4197;42.130;24.746;2023-09-08T00:29:20;99919.31;;;20.82;93.87
8320;BME280;4197;42.130;24.746;2023-09-08T00:31:49;99923.25;;;20.81;94.34
8320;BME280;4197;42.130;24.746;2023-09-08T00:34:17;99928.41;;;20.76;96.26
8320;BME280;4197;42.130;24.746;2023-09-08T00:36:46;99923.78;;;20.69;96.69
8320;BME280;4197;42.130;24.746;2023-09-08T00:39:15;99926.16;;;20.67;97.97
8320;BME280;4197;42.130;24.746;2023-09-08T00:41:44;99927.41;;;20.62;99.03
8320;BME280;4197;42.130;24.746;2023-09-08T00:44:12;99917.59;;;20.58;100.00
8320;BME280;4197;42.130;24.746;2023-09-08T00:46:40;99927.41;;;20.59;100.00
8320;BME280;4197;42.130;24.746;2023-09-08T00:49:08;99928.25;;;20.56;100.00
8320;BME280;4197;42.130;24.746;2023-09-08T00:51:38;99925.13;;;20.54;100.00
8320;BME280;4197;42.130;24.746;2023-09-08T00:54:06;99924.34;;;20.49;100.00
8320;BME280;4197;42.130;24.746;2023-09-08T00:56:37;99920.06;;;20.45;100.00
8320;BME280;4197;42.130;24.746;2023-09-08T00:59:05;99918.91;;;20.42;100.00
8320;BME280;4197;42.130;24.746;2023-09-08T01:01:35;99913.06;;;20.37;100.00
8320;BME280;4197;42.130;24.746;2023-09-08T01:04:03;99912.28;;;20.36;100.00
8320;BME280;4197;42.130;24.746;2023-09-08T01:06:32;99903.19;;;20.39;100.00
8320;BME280;4197;42.130;24.746;2023-09-08T01:09:01;99907.97;;;20.35;100.00
8320;BME280;4197;42.130;24.746;2023-09-08T01:11:30;99903.28;;;20.32;100.00
8320;BME280;4197;42.130;24.746;2023-09-08T01:14:00;99903.28;;;20.32;100.00
8320;BME280;4197;42.130;24.746;2023-09-08T01:16:28;99898.59;;;20.29;100.00
8320;BME280;4197;42.130;24.746;2023-09-08T01:18:58;99894.31;;;20.24;100.00
8320;BME280;4197;42.130;24.746;2023-09-08T01:21:51;99894.31;;;20.24;100.00
8320;BME280;4197;42.130;24.746;2023-09-08T01:24:38;99898.66;;;20.22;100.00
8320;BME280;4197;42.130;24.746;2023-09-08T01:27:16;99891.22;;;20.19;100.00
8320;BME280;4197;42.130;24.746;2023-09-08T01:29:47;99892.03;;;20.16;100.00
8320;BME280;4197;42.130;24.746;2023-09-08T01:32:16;99894.38;;;20.17;100.00
8320;BME280;4197;42.130;24.746;2023-09-08T01:34:45;99899.09;;;20.17;100.00
8320;BME280;4197;42.130;24.746;2023-09-08T01:37:13;99894.84;;;20.12;100.00
8320;BME280;4197;42.130;24.746;2023-09-08T01:39:42;99894.34;;;20.21;100.00
8320;BME280;4197;42.130;24.746;2023-09-08T01:42:10;99895.22;;;20.11;100.00
8320;BME280;4197;42.130;24.746;2023-09-08T01:44:40;99889.78;;;20.03;100.00
8320;BME280;4197;42.130;24.746;2023-09-08T01:47:08;99890.97;;;20.02;100.00
8320;BME280;4197;42.130;24.746;2023-09-08T01:49:36;99893.56;;;20.20;100.00
8320;BME280;4197;42.130;24.746;2023-09-08T01:52:05;99894.34;;;20.21;100.00
8320;BME280;4197;42.130;24.746;2023-09-08T01:54:34;99892.47;;;20.11;100.00
8320;BME280;4197;42.130;24.746;2023-09-08T01:57:03;99894.44;;;20.10;100.00
8320;BME280;4197;42.130;24.746;2023-09-08T01:59:31;99893.63;;;20.13;100.00
8320;BME280;4197;42.130;24.746;2023-09-08T02:02:01;99904.31;;;20.08;100.00
8320;BME280;4197;42.130;24.746;2023-09-08T02:04:29;99903.97;;;20.02;100.00
8320;BME280;4197;42.130;24.746;2023-09-08T02:07:00;99906.75;;;19.98;100.00
8320;BME280;4197;42.130;24.746;2023-09-08T02:09:30;99903.59;;;20.00;100.00
8320;BME280;4197;42.130;24.746;2023-09-08T02:14:27;99894.25;;;19.90;100.00
8320;BME280;4197;42.130;24.746;2023-09-08T02:16:55;99895.78;;;19.91;100.00
8320;BME280;4197;42.130;24.746;2023-09-08T02:19:25;99895.41;;;19.89;100.00
8320;BME280;4197;42.130;24.746;2023-09-08T02:21:54;99886.84;;;19.80;100.00
8320;BME280;4197;42.130;24.746;2023-09-08T02:24:22;99896.34;;;19.72;100.00
8320;BME280;4197;42.130;24.746;2023-09-08T02:26:50;99895.56;;;19.71;100.00
8320;BME280;4197;42.130;24.746;2023-09-08T02:29:18;99892.41;;;19.76;100.00
8320;BME280;4197;42.130;24.746;2023-09-08T02:31:46;99882.22;;;19.70;100.00
8320;BME280;4197;42.130;24.746;2023-09-08T02:34:14;99887.75;;;19.63;100.00
8320;BME280;4197;42.130;24.746;2023-09-08T02:36:44;99890.53;;;19.55;100.00
8320;BME280;4197;42.130;24.746;2023-09-08T02:39:14;99878.38;;;19.53;100.00
8320;BME280;4197;42.130;24.746;2023-09-08T02:41:43;99881.13;;;19.53;100.00
8320;BME280;4197;42.130;24.746;2023-09-08T02:44:11;99879.53;;;19.55;100.00
8320;BME280;4197;42.130;24.746;2023-09-08T02:46:39;99874.47;;;19.50;100.00
8320;BME280;4197;42.130;24.746;2023-09-08T02:49:07;99869.75;;;19.51;100.00
8320;BME280;4197;42.130;24.746;2023-09-08T02:51:35;99876.84;;;19.48;100.00
8320;BME280;4197;42.130;24.746;2023-09-08T02:54:05;99879.66;;;19.41;100.00
8320;BME280;4197;42.130;24.746;2023-09-08T02:56:34;99873.75;;;19.39;100.00
8320;BME280;4197;42.130;24.746;2023-09-08T02:59:02;99869.06;;;19.36;100.00
8320;BME280;4197;42.130;24.746;2023-09-08T03:01:30;99875.34;;;19.40;100.00
8320;BME280;4197;42.130;24.746;2023-09-08T03:03:59;99875.34;;;19.40;100.00
8320;BME280;4197;42.130;24.746;2023-09-08T03:06:28;99875.00;;;19.27;100.00
8320;BME280;4197;42.130;24.746;2023-09-08T03:08:58;99871.06;;;19.28;100.00
8320;BME280;4197;42.130;24.746;2023-09-08T03:11:27;99882.09;;;19.25;100.00
8320;BME280;4197;42.130;24.746;2023-09-08T03:13:56;99883.72;;;19.19;100.00
8320;BME280;4197;42.130;24.746;2023-09-08T03:16:24;99885.69;;;19.14;100.00
8320;BME280;4197;42.130;24.746;2023-09-08T03:18:53;99885.66;;;19.22;100.00
8320;BME280;4197;42.130;24.746;2023-09-08T03:21:21;99896.63;;;19.29;100.00
8320;BME280;4197;42.130;24.746;2023-09-08T03:23:49;99887.53;;;19.35;100.00
8320;BME280;4197;42.130;24.746;2023-09-08T03:26:17;99887.53;;;19.35;100.00
8320;BME280;4197;42.130;24.746;2023-09-08T03:28:47;99891.44;;;19.38;100.00
8320;BME280;4197;42.130;24.746;2023-09-08T03:31:15;99879.69;;;19.34;100.00
8320;BME280;4197;42.130;24.746;2023-09-08T03:33:44;99884.47;;;19.23;100.00
8320;BME280;4197;42.130;24.746;2023-09-08T03:36:12;99888.00;;;19.23;100.00
8320;BME280;4197;42.130;24.746;2023-09-08T03:38:40;99886.84;;;19.21;100.00
8320;BME280;4197;42.130;24.746;2023-09-08T03:41:08;99891.19;;;19.18;100.00
8320;BME280;4197;42.130;24.746;2023-09-08T03:43:37;99884.88;;;19.17;100.00
8320;BME280;4197;42.130;24.746;2023-09-08T03:46:07;99889.56;;;19.24;100.00
8320;BME280;4197;42.130;24.746;2023-09-08T03:48:35;99885.66;;;19.22;100.00
8320;BME280;4197;42.130;24.746;2023-09-08T03:51:03;99888.38;;;19.25;100.00
8320;BME280;4197;42.130;24.746;2023-09-08T03:53:32;99893.47;;;19.30;100.00
8320;BME280;4197;42.130;24.746;2023-09-08T03:56:00;99885.19;;;19.37;100.00
8320;BME280;4197;42.130;24.746;2023-09-08T03:58:28;99886.72;;;19.38;100.00
8320;BME280;4197;42.130;24.746;2023-09-08T04:00:56;99890.28;;;19.35;100.00
8320;BME280;4197;42.130;24.746;2023-09-08T04:03:26;99891.38;;;19.45;100.00
8320;BME280;4197;42.130;24.746;2023-09-08T04:05:55;99888.66;;;19.42;100.00
8320;BME280;4197;42.130;24.746;2023-09-08T04:08:23;99894.56;;;19.44;100.00
8320;BME280;4197;42.130;24.746;2023-09-08T04:10:52;99894.94;;;19.42;100.00
8320;BME280;4197;42.130;24.746;2023-09-08T04:13:21;99892.63;;;19.41;100.00
8320;BME280;4197;42.130;24.746;2023-09-08T04:15:49;99902.84;;;19.40;100.00
8320;BME280;4197;42.130;24.746;2023-09-08T04:18:17;99900.13;;;19.33;100.00
8320;BME280;4197;42.130;24.746;2023-09-08T04:20:46;99914.66;;;19.33;100.00
8320;BME280;4197;42.130;24.746;2023-09-08T04:23:15;99905.63;;;19.33;100.00
8320;BME280;4197;42.130;24.746;2023-09-08T04:25:43;99906.00;;;19.35;100.00
8320;BME280;4197;42.130;24.746;2023-09-08T04:28:11;99913.03;;;19.43;100.00
8320;BME280;4197;42.130;24.746;2023-09-08T04:30:39;99906.31;;;19.48;100.00
8320;BME280;4197;42.130;24.746;2023-09-08T04:33:07;99909.41;;;19.57;100.00
8320;BME280;4197;42.130;24.746;2023-09-08T04:35:36;99914.47;;;19.66;100.00
8320;BME280;4197;42.130;24.746;2023-09-08T04:38:07;99923.09;;;19.64;100.00
8320;BME280;4197;42.130;24.746;2023-09-08T04:40:35;99919.59;;;19.60;100.00
8320;BME280;4197;42.130;24.746;2023-09-08T04:43:03;99927.81;;;19.71;100.00
8320;BME280;4197;42.130;24.746;2023-09-08T04:45:32;99923.91;;;19.68;100.00
8320;BME280;4197;42.130;24.746;2023-09-08T04:48:00;99922.66;;;19.73;100.00
8320;BME280;4197;42.130;24.746;2023-09-08T04:50:28;99934.38;;;19.84;100.00
8320;BME280;4197;42.130;24.746;2023-09-08T04:52:56;99926.56;;;19.79;100.00
8320;BME280;4197;42.130;24.746;2023-09-08T04:55:26;99930.56;;;19.71;100.00
8320;BME280;4197;42.130;24.746;2023-09-08T04:57:54;99925.75;;;19.78;100.00
8320;BME280;4197;42.130;24.746;2023-09-08T05:00:24;99926.91;;;19.85;100.00
8320;BME280;4197;42.130;24.746;2023-09-08T05:02:52;99922.84;;;20.00;100.00
8320;BME280;4197;42.130;24.746;2023-09-08T05:05:20;99929.00;;;20.18;100.00
8320;BME280;4197;42.130;24.746;2023-09-08T05:07:49;99930.50;;;20.23;100.00
8320;BME280;4197;42.130;24.746;2023-09-08T05:10:18;99935.56;;;20.28;100.00
8320;BME280;4197;42.130;24.746;2023-09-08T05:12:48;99936.25;;;20.39;100.00
8320;BME280;4197;42.130;24.746;2023-09-08T05:15:17;99936.91;;;20.58;100.00
8320;BME280;4197;42.130;24.746;2023-09-08T05:17:47;99941.59;;;20.61;100.00
8320;BME280;4197;42.130;24.746;2023-09-08T05:20:16;99943.34;;;20.78;100.00
8320;BME280;4197;42.130;24.746;2023-09-08T05:22:44;99946.03;;;20.85;100.00
8320;BME280;4197;42.130;24.746;2023-09-08T05:25:12;99944.19;;;20.75;100.00
8320;BME280;4197;42.130;24.746;2023-09-08T05:27:40;99941.34;;;20.82;100.00
8320;BME280;4197;42.130;24.746;2023-09-08T05:30:11;99942.25;;;21.06;100.00
8320;BME280;4197;42.130;24.746;2023-09-08T05:32:39;99941.38;;;21.13;100.00
8320;BME280;4197;42.130;24.746;2023-09-08T05:35:07;99944.50;;;21.15;100.00
8320;BME280;4197;42.130;24.746;2023-09-08T05:37:36;99944.19;;;21.36;100.00
8320;BME280;4197;42.130;24.746;2023-09-08T05:40:06;99944.50;;;21.46;100.00
8320;BME280;4197;42.130;24.746;2023-09-08T05:42:34;99952.81;;;21.42;100.00
8320;BME280;4197;42.130;24.746;2023-09-08T05:45:03;99953.56;;;21.46;100.00
8320;BME280;4197;42.130;24.746;2023-09-08T05:47:33;99957.53;;;21.45;100.00
8320;BME280;4197;42.130;24.746;2023-09-08T05:50:02;99956.56;;;21.55;100.00
8320;BME280;4197;42.130;24.746;2023-09-08T05:52:31;99966.00;;;21.58;100.00
8320;BME280;4197;42.130;24.746;2023-09-08T05:55:00;99957.41;;;21.52;100.00
8320;BME280;4197;42.130;24.746;2023-09-08T05:57:29;99970.81;;;21.54;100.00
8320;BME280;4197;42.130;24.746;2023-09-08T05:59:57;99962.53;;;21.54;100.00
8320;BME280;4197;42.130;24.746;2023-09-08T06:02:26;99964.91;;;21.52;100.00
8320;BME280;4197;42.130;24.746;2023-09-08T06:04:55;99969.59;;;21.55;100.00
8320;BME280;4197;42.130;24.746;2023-09-08T06:07:24;99963.56;;;21.64;100.00
8320;BME280;4197;42.130;24.746;2023-09-08T06:09:52;99961.84;;;21.73;100.00
8320;BME280;4197;42.130;24.746;2023-09-08T06:12:21;99967.16;;;21.88;100.00
8320;BME280;4197;42.130;24.746;2023-09-08T06:14:49;99967.03;;;21.95;100.00
8320;BME280;4197;42.130;24.746;2023-09-08T06:17:17;99965.50;;;22.17;100.00
8320;BME280;4197;42.130;24.746;2023-09-08T06:19:45;99968.88;;;22.29;100.00
8320;BME280;4197;42.130;24.746;2023-09-08T06:22:15;99974.53;;;22.45;100.00
8320;BME280;4197;42.130;24.746;2023-09-08T06:24:43;99977.91;;;22.53;100.00
8320;BME280;4197;42.130;24.746;2023-09-08T06:27:11;99979.50;;;22.54;100.00
8320;BME280;4197;42.130;24.746;2023-09-08T06:29:39;99988.84;;;22.60;100.00
8320;BME280;4197;42.130;24.746;2023-09-08T06:32:10;99991.00;;;22.72;100.00
8320;BME280;4197;42.130;24.746;2023-09-08T06:34:38;99993.19;;;22.81;100.00
8320;BME280;4197;42.130;24.746;2023-09-08T06:37:06;99997.03;;;22.87;100.00
8320;BME280;4197;42.130;24.746;2023-09-08T06:39:36;99990.78;;;23.06;100.00
8320;BME280;4197;42.130;24.746;2023-09-08T06:42:04;100001.25;;;23.15;100.00
8320;BME280;4197;42.130;24.746;2023-09-08T06:44:33;99996.41;;;23.19;100.00
8320;BME280;4197;42.130;24.746;2023-09-08T06:47:01;100003.66;;;23.33;100.00
8320;BME280;4197;42.130;24.746;2023-09-08T06:49:30;99996.66;;;23.28;100.00
8320;BME280;4197;42.130;24.746;2023-09-08T06:51:58;99993.03;;;23.31;100.00
8320;BME280;4197;42.130;24.746;2023-09-08T06:54:26;99995.78;;;23.31;100.00
8320;BME280;4197;42.130;24.746;2023-09-08T06:56:56;99994.25;;;23.47;100.00
8320;BME280;4197;42.130;24.746;2023-09-08T06:59:24;100001.91;;;23.59;100.00
8320;BME280;4197;42.130;24.746;2023-09-08T07:01:52;100004.19;;;23.64;100.00
8320;BME280;4197;42.130;24.746;2023-09-08T07:04:21;100004.19;;;23.64;100.00
8320;BME280;4197;42.130;24.746;2023-09-08T07:06:49;100008.56;;;23.81;100.00
8320;BME280;4197;42.130;24.746;2023-09-08T07:09:21;100012.47;;;24.00;100.00
8320;BME280;4197;42.130;24.746;2023-09-08T07:11:49;100011.53;;;24.07;100.00
8320;BME280;4197;42.130;24.746;2023-09-08T07:14:19;100012.75;;;24.22;100.00
8320;BME280;4197;42.130;24.746;2023-09-08T07:16:47;100011.09;;;24.25;100.00
8320;BME280;4197;42.130;24.746;2023-09-08T07:19:16;100012.66;;;24.26;100.00
8320;BME280;4197;42.130;24.746;2023-09-08T07:21:44;100004.94;;;24.34;100.00
8320;BME280;4197;42.130;24.746;2023-09-08T07:24:12;99999.41;;;24.17;100.00
8320;BME280;4197;42.130;24.746;2023-09-08T07:26:41;100002.84;;;24.05;100.00
8320;BME280;4197;42.130;24.746;2023-09-08T07:29:09;99997.91;;;24.13;100.00
8320;BME280;4197;42.130;24.746;2023-09-08T07:31:40;100005.03;;;23.97;96.97
8320;BME280;4197;42.130;24.746;2023-09-08T07:36:55;99995.84;;;23.84;93.47
8320;BME280;4197;42.130;24.746;2023-09-08T07:39:23;99994.25;;;23.83;92.56
8320;BME280;4197;42.130;24.746;2023-09-08T07:41:51;99992.47;;;24.09;90.41
8320;BME280;4197;42.130;24.746;2023-09-08T07:44:20;99990.63;;;24.19;85.86
8320;BME280;4197;42.130;24.746;2023-09-08T07:46:50;99987.44;;;24.04;84.70
8320;BME280;4197;42.130;24.746;2023-09-08T07:49:18;99986.31;;;24.01;82.95
8320;BME280;4197;42.130;24.746;2023-09-08T07:51:47;99984.31;;;24.02;81.84
8320;BME280;4197;42.130;24.746;2023-09-08T07:54:15;99988.06;;;24.12;77.95
8320;BME280;4197;42.130;24.746;2023-09-08T07:56:46;99987.34;;;24.24;73.49
8320;BME280;4197;42.130;24.746;2023-09-08T07:59:14;99982.66;;;24.37;70.96
8320;BME280;4197;42.130;24.746;2023-09-08T08:01:43;99981.28;;;24.29;70.11
8320;BME280;4197;42.130;24.746;2023-09-08T08:04:13;99985.09;;;24.35;67.31
8320;BME280;4197;42.130;24.746;2023-09-08T08:06:41;99985.97;;;24.32;65.56
8320;BME280;4197;42.130;24.746;2023-09-08T08:09:09;99982.16;;;24.59;62.90
8320;BME280;4197;42.130;24.746;2023-09-08T08:11:38;99970.53;;;24.64;62.10
8320;BME280;4197;42.130;24.746;2023-09-08T08:14:06;99979.28;;;24.62;62.56
8320;BME280;4197;42.130;24.746;2023-09-08T08:16:34;99979.28;;;24.91;63.06
8320;BME280;4197;42.130;24.746;2023-09-08T08:19:02;99973.47;;;25.15;64.33
8320;BME280;4197;42.130;24.746;2023-09-08T08:21:32;99971.41;;;25.45;62.96
8320;BME280;4197;42.130;24.746;2023-09-08T08:24:01;99965.31;;;25.75;60.95
8320;BME280;4197;42.130;24.746;2023-09-08T08:26:29;99969.28;;;26.13;58.88
8320;BME280;4197;42.130;24.746;2023-09-08T08:28:59;99967.84;;;26.43;55.52
8320;BME280;4197;42.130;24.746;2023-09-08T08:31:27;99966.75;;;26.40;54.62
8320;BME280;4197;42.130;24.746;2023-09-08T08:33:56;99962.88;;;26.51;55.96
8320;BME280;4197;42.130;24.746;2023-09-08T08:36:24;99964.44;;;26.96;53.86
8320;BME280;4197;42.130;24.746;2023-09-08T08:38:54;99962.94;;;27.26;51.81
8320;BME280;4197;42.130;24.746;2023-09-08T08:41:22;99954.72;;;27.00;50.36
8320;BME280;4197;42.130;24.746;2023-09-08T08:43:51;99961.19;;;26.97;52.28
8320;BME280;4197;42.130;24.746;2023-09-08T08:46:21;99962.59;;;27.24;51.00
8320;BME280;4197;42.130;24.746;2023-09-08T08:48:51;99959.25;;;26.85;50.48
8320;BME280;4197;42.130;24.746;2023-09-08T08:51:23;99955.84;;;26.81;50.95
8320;BME280;4197;42.130;24.746;2023-09-08T08:53:51;99954.97;;;26.93;50.00
8320;BME280;4197;42.130;24.746;2023-09-08T08:56:22;99964.69;;;26.66;49.62
8320;BME280;4197;42.130;24.746;2023-09-08T08:58:50;99949.75;;;26.03;51.55
8320;BME280;4197;42.130;24.746;2023-09-08T09:01:18;99957.47;;;26.21;52.98
8320;BME280;4197;42.130;24.746;2023-09-08T09:03:49;99950.59;;;26.48;53.01
8320;BME280;4197;42.130;24.746;2023-09-08T09:06:18;99945.34;;;26.85;51.63
8320;BME280;4197;42.130;24.746;2023-09-08T09:08:47;99951.53;;;27.11;49.94
8320;BME280;4197;42.130;24.746;2023-09-08T09:11:15;99954.88;;;26.75;48.92
8320;BME280;4197;42.130;24.746;2023-09-08T09:13:45;99938.81;;;26.57;48.79
8320;BME280;4197;42.130;24.746;2023-09-08T09:16:13;99944.63;;;26.37;49.65
8320;BME280;4197;42.130;24.746;2023-09-08T09:18:54;99943.00;;;26.26;50.49
8320;BME280;4197;42.130;24.746;2023-09-08T09:21:23;99939.66;;;26.32;49.11
8320;BME280;4197;42.130;24.746;2023-09-08T09:23:52;99939.81;;;26.15;52.60
8320;BME280;4197;42.130;24.746;2023-09-08T09:26:26;99947.97;;;25.97;51.01
8320;BME280;4197;42.130;24.746;2023-09-08T09:28:55;99945.28;;;26.06;51.32
8320;BME280;4197;42.130;24.746;2023-09-08T09:31:26;99936.19;;;25.93;51.21
8320;BME280;4197;42.130;24.746;2023-09-08T09:34:04;99935.72;;;26.07;49.27
8320;BME280;4197;42.130;24.746;2023-09-08T09:36:32;99938.06;;;25.96;49.76
8320;BME280;4197;42.130;24.746;2023-09-08T09:39:01;99925.06;;;26.06;48.87
8320;BME280;4197;42.130;24.746;2023-09-08T09:41:29;99932.03;;;26.10;48.26
8320;BME280;4197;42.130;24.746;2023-09-08T09:43:59;99932.84;;;26.11;48.90
8320;BME280;4197;42.130;24.746;2023-09-08T09:46:28;99920.97;;;25.97;49.17
8320;BME280;4197;42.130;24.746;2023-09-08T09:48:56;99921.66;;;26.23;48.07
8320;BME280;4197;42.130;24.746;2023-09-08T09:51:24;99919.38;;;26.44;47.69
8320;BME280;4197;42.130;24.746;2023-09-08T09:53:54;99907.66;;;26.49;49.52
8320;BME280;4197;42.130;24.746;2023-09-08T09:56:25;99912.22;;;26.78;48.72
8320;BME280;4197;42.130;24.746;2023-09-08T09:58:54;99902.97;;;26.81;46.80
8320;BME280;4197;42.130;24.746;2023-09-08T10:01:24;99898.22;;;26.90;48.37
8320;BME280;4197;42.130;24.746;2023-09-08T10:03:54;99903.47;;;27.10;48.80
8320;BME280;4197;42.130;24.746;2023-09-08T10:06:23;99901.09;;;27.31;46.83
8320;BME280;4197;42.130;24.746;2023-09-08T10:08:54;99894.69;;;27.52;47.08
8320;BME280;4197;42.130;24.746;2023-09-08T10:11:23;99893.31;;;27.66;46.79
8320;BME280;4197;42.130;24.746;2023-09-08T10:13:57;99888.09;;;27.77;47.26
8320;BME280;4197;42.130;24.746;2023-09-08T10:16:28;99884.97;;;27.75;46.57
8320;BME280;4197;42.130;24.746;2023-09-08T10:18:59;99880.69;;;27.34;44.16
8320;BME280;4197;42.130;24.746;2023-09-08T10:21:29;99884.13;;;26.85;45.53
8320;BME280;4197;42.130;24.746;2023-09-08T10:24:02;99881.66;;;26.43;45.49
8320;BME280;4197;42.130;24.746;2023-09-08T10:26:37;99877.84;;;26.28;46.97
8320;BME280;4197;42.130;24.746;2023-09-08T10:29:08;99870.53;;;26.43;47.56
8320;BME280;4197;42.130;24.746;2023-09-08T10:31:39;99865.53;;;26.73;46.78
8320;BME280;4197;42.130;24.746;2023-09-08T10:34:08;99865.56;;;27.13;44.84
8320;BME280;4197;42.130;24.746;2023-09-08T10:36:36;99859.53;;;27.14;45.73
8320;BME280;4197;42.130;24.746;2023-09-08T10:39:27;99863.53;;;27.35;44.41
8320;BME280;4197;42.130;24.746;2023-09-08T10:42:24;99863.38;;;27.39;45.03
8320;BME280;4197;42.130;24.746;2023-09-08T10:45:00;99862.19;;;27.49;45.27
8320;BME280;4197;42.130;24.746;2023-09-08T10:47:39;99849.63;;;27.54;45.37
8320;BME280;4197;42.130;24.746;2023-09-08T10:50:16;99856.94;;;27.61;45.23
8320;BME280;4197;42.130;24.746;2023-09-08T10:52:44;99858.66;;;27.67;45.41
8320;BME280;4197;42.130;24.746;2023-09-08T10:55:13;99851.38;;;27.70;44.74
8320;BME280;4197;42.130;24.746;2023-09-08T10:57:44;99850.13;;;27.71;42.73
8320;BME280;4197;42.130;24.746;2023-09-08T11:00:18;99844.41;;;27.65;43.00
8320;BME280;4197;42.130;24.746;2023-09-08T11:02:49;99839.00;;;27.71;44.09
8320;BME280;4197;42.130;24.746;2023-09-08T11:05:18;99834.97;;;27.72;44.96
8320;BME280;4197;42.130;24.746;2023-09-08T11:07:48;99829.38;;;27.63;44.78
8320;BME280;4197;42.130;24.746;2023-09-08T11:10:19;99829.53;;;27.50;46.02
8320;BME280;4197;42.130;24.746;2023-09-08T11:12:47;99826.41;;;27.39;46.85
8320;BME280;4197;42.130;24.746;2023-09-08T11:15:19;99824.38;;;27.39;46.10
8320;BME280;4197;42.130;24.746;2023-09-08T11:17:49;99822.25;;;27.52;45.40
8320;BME280;4197;42.130;24.746;2023-09-08T11:20:26;99818.66;;;27.43;44.50
8320;BME280;4197;42.130;24.746;2023-09-08T11:22:56;99816.97;;;27.45;43.20
8320;BME280;4197;42.130;24.746;2023-09-08T11:25:24;99816.63;;;27.34;44.56
8320;BME280;4197;42.130;24.746;2023-09-08T11:27:53;99821.28;;;27.37;45.74
8320;BME280;4197;42.130;24.746;2023-09-08T11:30:22;99814.03;;;27.40;46.62
8320;BME280;4197;42.130;24.746;2023-09-08T11:32:52;99815.72;;;27.37;45.00
8320;BME280;4197;42.130;24.746;2023-09-08T11:35:21;99805.19;;;27.32;44.18
8320;BME280;4197;42.130;24.746;2023-09-08T11:37:49;99797.75;;;27.29;44.96
8320;BME280;4197;42.130;24.746;2023-09-08T11:40:18;99803.97;;;27.42;44.28
8320;BME280;4197;42.130;24.746;2023-09-08T11:42:48;99794.84;;;27.42;44.34
8320;BME280;4197;42.130;24.746;2023-09-08T11:45:16;99800.84;;;27.31;42.21
8320;BME280;4197;42.130;24.746;2023-09-08T11:47:48;99788.34;;;27.45;42.49
8320;BME280;4197;42.130;24.746;2023-09-08T11:50:19;99784.91;;;27.31;41.84
8320;BME280;4197;42.130;24.746;2023-09-08T11:52:49;99775.78;;;27.22;40.42
8320;BME280;4197;42.130;24.746;2023-09-08T11:55:18;99780.13;;;27.32;41.55
8320;BME280;4197;42.130;24.746;2023-09-08T11:57:49;99775.19;;;27.45;43.14
8320;BME280;4197;42.130;24.746;2023-09-08T12:00:19;99773.38;;;27.61;42.27
8320;BME280;4197;42.130;24.746;2023-09-08T12:02:50;99764.38;;;27.66;41.79
8320;BME280;4197;42.130;24.746;2023-09-08T12:05:24;99776.28;;;27.57;40.93
8320;BME280;4197;42.130;24.746;2023-09-08T12:07:54;99770.09;;;27.62;39.32
8320;BME280;4197;42.130;24.746;2023-09-08T12:10:24;99769.19;;;27.47;39.31
8320;BME280;4197;42.130;24.746;2023-09-08T12:12:53;99754.16;;;27.53;40.33
8320;BME280;4197;42.130;24.746;2023-09-08T12:15:34;99752.03;;;27.57;39.13
8320;BME280;4197;42.130;24.746;2023-09-08T12:18:04;99748.75;;;27.77;39.77
8320;BME280;4197;42.130;24.746;2023-09-08T12:20:35;99749.84;;;28.08;38.83
8320;BME280;4197;42.130;24.746;2023-09-08T12:23:04;99746.88;;;28.30;39.68
8320;BME280;4197;42.130;24.746;2023-09-08T12:25:44;99738.31;;;28.42;36.94
8320;BME280;4197;42.130;24.746;2023-09-08T12:28:12;99738.00;;;28.50;37.51
8320;BME280;4197;42.130;24.746;2023-09-08T12:30:41;99738.13;;;28.55;36.42
8320;BME280;4197;42.130;24.746;2023-09-08T12:33:10;99729.72;;;28.64;36.38
8320;BME280;4197;42.130;24.746;2023-09-08T12:35:42;99730.50;;;28.65;36.70
8320;BME280;4197;42.130;24.746;2023-09-08T12:38:11;99727.69;;;28.74;35.86
8320;BME280;4197;42.130;24.746;2023-09-08T12:40:39;99729.28;;;28.90;35.61
8320;BME280;4197;42.130;24.746;2023-09-08T12:43:07;99727.75;;;28.89;35.59
8320;BME280;4197;42.130;24.746;2023-09-08T12:45:54;99718.81;;;28.76;36.40
8320;BME280;4197;42.130;24.746;2023-09-08T12:48:23;99721.47;;;28.70;36.75
8320;BME280;4197;42.130;24.746;2023-09-08T12:50:53;99721.47;;;28.70;36.90
8320;BME280;4197;42.130;24.746;2023-09-08T12:53:21;99718.38;;;28.68;38.34
8320;BME280;4197;42.130;24.746;2023-09-08T12:55:50;99715.19;;;28.60;36.67
8320;BME280;4197;42.130;24.746;2023-09-08T12:58:19;99712.88;;;28.40;36.62
8320;BME280;4197;42.130;24.746;2023-09-08T13:00:47;99716.47;;;28.50;37.31
8320;BME280;4197;42.130;24.746;2023-09-08T13:03:17;99711.97;;;28.34;36.88
8320;BME280;4197;42.130;24.746;2023-09-08T13:05:45;99721.47;;;28.28;36.44
8320;BME280;4197;42.130;24.746;2023-09-08T13:08:15;99724.13;;;28.13;36.74
8320;BME280;4197;42.130;24.746;2023-09-08T13:10:43;99722.41;;;28.15;37.05
8320;BME280;4197;42.130;24.746;2023-09-08T13:13:11;99720.72;;;28.09;37.14
8320;BME280;4197;42.130;24.746;2023-09-08T13:15:39;99726.59;;;28.20;36.62
8320;BME280;4197;42.130;24.746;2023-09-08T13:18:08;99719.75;;;28.21;36.83
8320;BME280;4197;42.130;24.746;2023-09-08T13:20:36;99713.91;;;28.19;36.85
8320;BME280;4197;42.130;24.746;2023-09-08T13:23:05;99718.69;;;28.18;36.33